createdAt,value
2022-08-30T00:00:08.288Z, 38.60
2022-08-30T00:01:08.264Z, 38.54
2022-08-30T00:02:08.363Z, 38.73
2022-08-30T00:03:08.482Z, 38.64
2022-08-30T00:04:08.375Z, 38.67
2022-08-30T00:05:08.409Z, 38.64
2022-08-30T00:06:08.431Z, 38.65
2022-08-30T00:07:08.448Z, 38.63
2022-08-30T00:08:08.483Z, 38.55
2022-08-30T00:09:08.510Z, 38.60
2022-08-30T00:10:08.555Z, 38.30
2022-08-30T00:11:08.641Z, 38.53
2022-08-30T00:12:08.633Z, 38.39
2022-08-30T00:13:08.713Z, 38.28
2022-08-30T00:14:08.707Z, 38.52
2022-08-30T00:15:08.734Z, 38.64
2022-08-30T00:16:08.815Z, 38.74
2022-08-30T00:17:08.844Z, 38.74
2022-08-30T00:18:08.829Z, 38.56
2022-08-30T00:19:08.857Z, 38.66
2022-08-30T00:20:08.891Z, 38.53
2022-08-30T00:21:08.920Z, 38.50
2022-08-30T00:22:08.976Z, 38.54
2022-08-30T00:23:09.025Z, 38.53
2022-08-30T00:24:09.067Z, 38.44
2022-08-30T00:25:09.091Z, 38.84
2022-08-30T00:26:09.112Z, 38.70
2022-08-30T00:27:09.126Z, 38.66
2022-08-30T00:28:09.194Z, 38.41
2022-08-30T00:29:09.245Z, 38.70
2022-08-30T00:30:09.242Z, 38.54
2022-08-30T00:31:09.313Z, 38.64
2022-08-30T00:32:09.269Z, 38.52
2022-08-30T00:33:09.303Z, 38.62
2022-08-30T00:34:09.318Z, 38.55
2022-08-30T00:35:09.400Z, 38.64
2022-08-30T00:36:09.458Z, 38.57
2022-08-30T00:37:09.449Z, 38.64
2022-08-30T00:38:09.482Z, 38.44
2022-08-30T00:39:09.510Z, 38.33
2022-08-30T00:40:09.572Z, 38.62
2022-08-30T00:41:09.588Z, 38.38
2022-08-30T00:42:09.597Z, 38.32
2022-08-30T00:43:09.658Z, 38.54
2022-08-30T00:44:09.720Z, 38.44
2022-08-30T00:45:09.718Z, 38.31
2022-08-30T00:46:09.811Z, 38.39
2022-08-30T00:47:09.817Z, 38.34
2022-08-30T00:48:09.799Z, 38.44
2022-08-30T00:49:09.799Z, 38.45
2022-08-30T00:50:09.835Z, 38.67
2022-08-30T00:51:09.864Z, 38.50
2022-08-30T00:52:09.900Z, 38.77
2022-08-30T00:53:10.018Z, 38.53
2022-08-30T00:54:10.030Z, 38.51
2022-08-30T00:55:10.017Z, 38.44
2022-08-30T00:56:10.085Z, 38.46
2022-08-30T00:57:10.059Z, 38.50
2022-08-30T00:58:10.097Z, 38.51
2022-08-30T00:59:10.191Z, 38.64
2022-08-30T01:00:10.199Z, 38.65
2022-08-30T01:01:10.349Z, 38.48
2022-08-30T01:02:10.340Z, 38.65
2022-08-30T01:03:10.289Z, 38.69
2022-08-30T01:04:10.374Z, 38.47
2022-08-30T01:05:10.355Z, 38.66
2022-08-30T01:06:10.396Z, 38.32
2022-08-30T01:07:10.433Z, 38.46
2022-08-30T01:08:10.481Z, 38.35
2022-08-30T01:09:10.596Z, 38.39
2022-08-30T01:10:10.609Z, 38.43
2022-08-30T01:11:10.586Z, 38.80
2022-08-30T01:12:10.590Z, 38.57
2022-08-30T01:13:10.683Z, 38.55
2022-08-30T01:14:10.730Z, 38.40
2022-08-30T01:15:10.712Z, 38.57
2022-08-30T01:16:10.905Z, 38.46
2022-08-30T01:17:10.789Z, 38.50
2022-08-30T01:18:10.884Z, 38.38
2022-08-30T01:19:10.919Z, 38.41
2022-08-30T01:20:10.936Z, 38.81
2022-08-30T01:21:10.932Z, 38.38
2022-08-30T01:22:10.954Z, 38.51
2022-08-30T01:23:11.054Z, 38.41
2022-08-30T01:24:11.191Z, 38.65
2022-08-30T01:25:11.118Z, 38.65
2022-08-30T01:26:11.115Z, 38.73
2022-08-30T01:27:11.125Z, 38.47
2022-08-30T01:28:11.155Z, 38.59
2022-08-30T01:29:11.197Z, 38.42
2022-08-30T01:30:11.235Z, 38.65
2022-08-30T01:31:11.373Z, 38.51
2022-08-30T01:32:11.294Z, 38.48
2022-08-30T01:33:11.678Z, 38.32
2022-08-30T01:34:11.398Z, 38.65
2022-08-30T01:35:11.428Z, 38.53
2022-08-30T01:36:11.421Z, 38.62
2022-08-30T01:37:11.467Z, 38.56
2022-08-30T01:38:11.583Z, 38.31
2022-08-30T01:39:11.600Z, 38.44
2022-08-30T01:40:11.648Z, 38.51
2022-08-30T01:41:11.625Z, 38.49
2022-08-30T01:42:11.648Z, 38.40
2022-08-30T01:43:11.665Z, 38.41
2022-08-30T01:44:11.715Z, 38.62
2022-08-30T01:45:11.762Z, 38.43
2022-08-30T01:46:12.061Z, 38.47
2022-08-30T01:47:11.843Z, 38.64
2022-08-30T01:48:11.887Z, 38.39
2022-08-30T01:49:11.924Z, 38.45
2022-08-30T01:50:11.946Z, 38.49
2022-08-30T01:51:11.999Z, 38.38
2022-08-30T01:52:12.084Z, 38.44
2022-08-30T01:53:14.328Z, 38.40
2022-08-30T01:54:12.097Z, 38.44
2022-08-30T01:55:12.131Z, 38.51
2022-08-30T01:56:12.165Z, 38.49
2022-08-30T01:57:12.212Z, 38.60
2022-08-30T01:58:12.270Z, 38.64
2022-08-30T01:59:12.258Z, 38.44
2022-08-30T02:00:12.264Z, 38.52
2022-08-30T02:01:12.346Z, 38.46
2022-08-30T02:02:12.345Z, 38.35
2022-08-30T02:03:12.456Z, 38.43
2022-08-30T02:04:12.531Z, 38.44
2022-08-30T02:05:12.499Z, 38.45
2022-08-30T02:06:12.461Z, 38.41
2022-08-30T02:07:12.484Z, 38.42
2022-08-30T02:08:12.568Z, 38.47
2022-08-30T02:09:12.583Z, 38.57
2022-08-30T02:10:12.609Z, 38.64
2022-08-30T02:11:12.642Z, 38.51
2022-08-30T02:12:12.683Z, 38.32
2022-08-30T02:13:12.749Z, 38.27
2022-08-30T02:14:12.729Z, 38.46
2022-08-30T02:15:12.825Z, 38.40
2022-08-30T02:16:12.822Z, 38.34
2022-08-30T02:17:12.876Z, 38.35
2022-08-30T02:18:12.866Z, 38.38
2022-08-30T02:19:12.889Z, 38.36
2022-08-30T02:20:12.914Z, 38.23
2022-08-30T02:21:12.921Z, 38.52
2022-08-30T02:22:12.963Z, 38.42
2022-08-30T02:23:13.253Z, 38.48
2022-08-30T02:24:13.099Z, 38.50
2022-08-30T02:25:20.406Z, 38.46
2022-08-30T02:26:13.146Z, 38.38
2022-08-30T02:27:13.130Z, 38.34
2022-08-30T02:28:14.865Z, 38.53
2022-08-30T02:29:13.175Z, 38.35
2022-08-30T02:30:13.231Z, 38.42
2022-08-30T02:31:13.324Z, 38.50
2022-08-30T02:32:13.377Z, 38.52
2022-08-30T02:33:13.413Z, 38.53
2022-08-30T02:34:13.365Z, 38.43
2022-08-30T02:35:13.439Z, 38.50
2022-08-30T02:36:13.425Z, 38.31
2022-08-30T02:37:13.470Z, 38.18
2022-08-30T02:38:13.484Z, 38.24
2022-08-30T02:39:13.504Z, 38.29
2022-08-30T02:40:13.705Z, 38.38
2022-08-30T02:41:13.632Z, 38.54
2022-08-30T02:42:13.651Z, 38.39
2022-08-30T02:43:13.620Z, 38.35
2022-08-30T02:44:13.669Z, 38.55
2022-08-30T02:45:13.707Z, 38.43
2022-08-30T02:46:13.852Z, 38.60
2022-08-30T02:47:13.753Z, 38.61
2022-08-30T02:48:13.786Z, 38.36
2022-08-30T02:49:32.495Z, 38.40
2022-08-30T02:50:13.903Z, 38.34
2022-08-30T02:51:13.937Z, 38.33
2022-08-30T02:52:13.920Z, 38.41
2022-08-30T02:53:16.317Z, 38.40
2022-08-30T02:54:14.059Z, 38.37
2022-08-30T02:55:14.031Z, 38.50
2022-08-30T02:56:14.047Z, 38.52
2022-08-30T02:57:20.187Z, 38.42
2022-08-30T02:58:14.104Z, 38.42
2022-08-30T02:59:14.156Z, 38.44
2022-08-30T03:00:14.208Z, 38.56
2022-08-30T03:01:14.407Z, 38.56
2022-08-30T03:02:14.314Z, 38.30
2022-08-30T03:03:14.465Z, 38.37
2022-08-30T03:04:14.384Z, 38.53
2022-08-30T03:05:14.355Z, 38.48
2022-08-30T03:06:14.401Z, 38.42
2022-08-30T03:07:14.504Z, 38.42
2022-08-30T03:08:14.544Z, 38.39
2022-08-30T03:09:14.547Z, 38.41
2022-08-30T03:10:14.563Z, 38.28
2022-08-30T03:11:14.564Z, 38.35
2022-08-30T03:12:14.652Z, 38.43
2022-08-30T03:13:14.780Z, 38.42
2022-08-30T03:14:14.730Z, 38.39
2022-08-30T03:15:14.713Z, 38.45
2022-08-30T03:16:14.811Z, 38.36
2022-08-30T03:17:15.552Z, 38.38
2022-08-30T03:18:14.839Z, 38.40
2022-08-30T03:19:14.860Z, 38.39
2022-08-30T03:20:14.911Z, 38.31
2022-08-30T03:21:14.907Z, 38.44
2022-08-30T03:22:14.949Z, 38.32
2022-08-30T03:23:15.012Z, 38.36
2022-08-30T03:24:15.128Z, 38.29
2022-08-30T03:25:15.119Z, 38.28
2022-08-30T03:26:15.121Z, 38.40
2022-08-30T03:27:15.172Z, 38.35
2022-08-30T03:28:15.179Z, 38.49
2022-08-30T03:29:15.189Z, 38.34
2022-08-30T03:30:15.242Z, 38.38
2022-08-30T03:31:15.441Z, 38.47
2022-08-30T03:32:15.390Z, 38.37
2022-08-30T03:33:15.708Z, 38.39
2022-08-30T03:34:15.388Z, 38.28
2022-08-30T03:35:15.393Z, 38.34
2022-08-30T03:36:15.476Z, 38.22
2022-08-30T03:37:15.528Z, 38.47
2022-08-30T03:38:15.557Z, 38.38
2022-08-30T03:39:15.521Z, 38.46
2022-08-30T03:40:15.589Z, 38.51
2022-08-30T03:41:15.601Z, 38.35
2022-08-30T03:42:15.652Z, 38.46
2022-08-30T03:43:15.744Z, 38.31
2022-08-30T03:44:15.671Z, 38.31
2022-08-30T03:45:15.760Z, 38.38
2022-08-30T03:46:15.853Z, 38.29
2022-08-30T03:47:15.828Z, 38.17
2022-08-30T03:48:15.809Z, 38.28
2022-08-30T03:49:15.893Z, 38.20
2022-08-30T03:50:15.867Z, 38.19
2022-08-30T03:51:15.878Z, 38.21
2022-08-30T03:52:15.988Z, 38.12
2022-08-30T03:53:16.279Z, 38.15
2022-08-30T03:54:16.024Z, 38.01
2022-08-30T03:55:16.020Z, 38.18
2022-08-30T03:56:16.067Z, 38.08
2022-08-30T03:57:20.034Z, 38.22
2022-08-30T03:58:19.210Z, 38.19
2022-08-30T03:59:16.219Z, 37.99
2022-08-30T04:00:16.212Z, 38.15
2022-08-30T04:01:16.349Z, 38.30
2022-08-30T04:02:16.346Z, 38.15
2022-08-30T04:03:16.603Z, 38.06
2022-08-30T04:04:20.764Z, 38.07
2022-08-30T04:05:18.548Z, 38.18
2022-08-30T04:06:16.420Z, 38.03
2022-08-30T04:07:16.454Z, 38.11
2022-08-30T04:08:16.481Z, 38.19
2022-08-30T04:09:16.516Z, 38.28
2022-08-30T04:10:16.562Z, 38.39
2022-08-30T04:11:16.591Z, 38.14
2022-08-30T04:12:18.777Z, 38.39
2022-08-30T04:13:16.791Z, 38.26
2022-08-30T04:14:16.673Z, 38.16
2022-08-30T04:15:16.710Z, 38.21
2022-08-30T04:16:16.821Z, 38.19
2022-08-30T04:17:16.796Z, 38.12
2022-08-30T04:18:16.863Z, 38.15
2022-08-30T04:19:16.862Z, 38.26
2022-08-30T04:20:16.966Z, 38.58
2022-08-30T04:21:16.980Z, 38.29
2022-08-30T04:22:17.026Z, 38.27
2022-08-30T04:23:17.359Z, 38.14
2022-08-30T04:24:17.032Z, 38.24
2022-08-30T04:25:17.065Z, 38.22
2022-08-30T04:26:17.136Z, 38.19
2022-08-30T04:27:17.136Z, 38.40
2022-08-30T04:28:17.160Z, 38.16
2022-08-30T04:29:17.233Z, 38.06
2022-08-30T04:30:17.227Z, 38.21
2022-08-30T04:31:17.355Z, 38.25
2022-08-30T04:32:17.299Z, 38.23
2022-08-30T04:33:17.608Z, 38.30
2022-08-30T04:34:17.368Z, 37.96
2022-08-30T04:35:17.383Z, 38.07
2022-08-30T04:36:17.478Z, 38.06
2022-08-30T04:37:17.505Z, 38.19
2022-08-30T04:38:17.508Z, 38.13
2022-08-30T04:39:17.499Z, 38.27
2022-08-30T04:40:17.581Z, 38.25
2022-08-30T04:41:17.585Z, 38.21
2022-08-30T04:42:17.624Z, 38.17
2022-08-30T04:43:17.992Z, 38.32
2022-08-30T04:44:19.512Z, 38.31
2022-08-30T04:45:17.718Z, 38.30
2022-08-30T04:46:17.803Z, 38.30
2022-08-30T04:47:17.782Z, 38.22
2022-08-30T04:48:17.819Z, 38.34
2022-08-30T04:49:17.894Z, 38.32
2022-08-30T04:50:17.865Z, 38.24
2022-08-30T04:51:17.948Z, 38.41
2022-08-30T04:52:17.989Z, 38.34
2022-08-30T04:53:18.165Z, 38.13
2022-08-30T04:54:17.987Z, 38.14
2022-08-30T04:55:20.258Z, 38.09
2022-08-30T04:56:18.151Z, 38.11
2022-08-30T04:57:18.122Z, 38.27
2022-08-30T04:58:18.164Z, 38.29
2022-08-30T04:59:18.215Z, 38.20
2022-08-30T05:00:18.230Z, 38.41
2022-08-30T05:01:18.991Z, 38.35
2022-08-30T05:02:18.334Z, 38.23
2022-08-30T05:03:18.484Z, 38.29
2022-08-30T05:04:18.408Z, 38.23
2022-08-30T05:05:18.440Z, 38.39
2022-08-30T05:06:18.441Z, 38.10
2022-08-30T05:07:18.435Z, 38.31
2022-08-30T05:08:22.056Z, 38.34
2022-08-30T05:09:18.548Z, 38.36
2022-08-30T05:10:18.548Z, 38.24
2022-08-30T05:11:18.633Z, 38.22
2022-08-30T05:12:18.616Z, 38.21
2022-08-30T05:13:18.824Z, 38.22
2022-08-30T05:14:18.655Z, 38.20
2022-08-30T05:15:18.688Z, 38.38
2022-08-30T05:16:18.762Z, 38.26
2022-08-30T05:17:18.747Z, 38.16
2022-08-30T05:18:18.800Z, 38.06
2022-08-30T05:19:18.840Z, 38.16
2022-08-30T05:20:18.934Z, 38.10
2022-08-30T05:21:18.939Z, 38.22
2022-08-30T05:22:19.014Z, 38.00
2022-08-30T05:23:18.999Z, 38.24
2022-08-30T05:24:19.023Z, 38.22
2022-08-30T05:25:19.064Z, 38.26
2022-08-30T05:26:19.162Z, 38.08
2022-08-30T05:27:19.175Z, 38.22
2022-08-30T05:28:21.020Z, 38.09
2022-08-30T05:29:19.259Z, 38.12
2022-08-30T05:30:19.253Z, 38.09
2022-08-30T05:31:19.299Z, 38.20
2022-08-30T05:32:19.293Z, 38.46
2022-08-30T05:33:19.469Z, 38.27
2022-08-30T05:34:19.470Z, 38.19
2022-08-30T05:35:24.916Z, 38.25
2022-08-30T05:36:19.615Z, 38.40
2022-08-30T05:37:19.612Z, 38.30
2022-08-30T05:38:19.616Z, 38.25
2022-08-30T05:39:22.034Z, 38.11
2022-08-30T05:40:19.813Z, 38.19
2022-08-30T05:41:19.752Z, 38.25
2022-08-30T05:42:19.895Z, 38.42
2022-08-30T05:43:19.782Z, 38.31
2022-08-30T05:44:22.986Z, 38.17
2022-08-30T05:45:19.894Z, 38.29
2022-08-30T05:46:20.181Z, 38.36
2022-08-30T05:47:19.891Z, 38.36
2022-08-30T05:48:20.032Z, 38.31
2022-08-30T05:49:20.049Z, 38.42
2022-08-30T05:50:20.034Z, 38.33
2022-08-30T05:51:20.042Z, 38.35
2022-08-30T05:52:20.039Z, 38.46
2022-08-30T05:53:20.174Z, 38.32
2022-08-30T05:54:20.176Z, 38.51
2022-08-30T05:55:20.179Z, 38.38
2022-08-30T05:56:20.318Z, 38.45
2022-08-30T05:57:20.315Z, 38.33
2022-08-30T05:58:20.322Z, 38.39
2022-08-30T05:59:20.320Z, 38.60
2022-08-30T06:00:20.316Z, 38.32
2022-08-30T06:01:20.322Z, 38.49
2022-08-30T06:02:20.466Z, 38.33
2022-08-30T06:03:20.526Z, 38.36
2022-08-30T06:04:20.454Z, 38.43
2022-08-30T06:05:20.454Z, 38.37
2022-08-30T06:06:20.455Z, 38.47
2022-08-30T06:07:22.834Z, 38.23
2022-08-30T06:08:20.544Z, 38.35
2022-08-30T06:09:20.547Z, 38.30
2022-08-30T06:10:20.549Z, 38.39
2022-08-30T06:11:20.579Z, 38.28
2022-08-30T06:12:20.725Z, 38.33
2022-08-30T06:13:20.892Z, 38.36
2022-08-30T06:14:20.892Z, 38.45
2022-08-30T06:15:20.891Z, 38.38
2022-08-30T06:16:20.946Z, 38.47
2022-08-30T06:17:20.896Z, 38.66
2022-08-30T06:18:21.614Z, 38.52
2022-08-30T06:19:21.062Z, 38.43
2022-08-30T06:20:21.065Z, 38.43
2022-08-30T06:21:21.063Z, 38.57
2022-08-30T06:22:21.063Z, 38.53
2022-08-30T06:23:21.067Z, 38.63
2022-08-30T06:24:35.665Z, 38.65
2022-08-30T06:25:21.235Z, 38.63
2022-08-30T06:26:21.272Z, 38.51
2022-08-30T06:27:21.241Z, 38.43
2022-08-30T06:28:21.243Z, 38.47
2022-08-30T06:29:21.373Z, 38.61
2022-08-30T06:30:21.374Z, 38.63
2022-08-30T06:31:21.431Z, 38.79
2022-08-30T06:32:21.375Z, 38.55
2022-08-30T06:33:21.378Z, 38.47
2022-08-30T06:34:21.404Z, 38.86
2022-08-30T06:35:21.534Z, 38.62
2022-08-30T06:36:21.509Z, 38.61
2022-08-30T06:37:29.657Z, 38.81
2022-08-30T06:38:21.544Z, 38.68
2022-08-30T06:39:21.690Z, 38.22
2022-08-30T06:40:21.818Z, 38.03
2022-08-30T06:41:21.850Z, 38.19
2022-08-30T06:42:21.850Z, 38.24
2022-08-30T06:43:21.853Z, 38.26
2022-08-30T06:44:21.857Z, 38.23
2022-08-30T06:45:21.854Z, 38.33
2022-08-30T06:46:22.091Z, 38.29
2022-08-30T06:47:22.032Z, 38.15
2022-08-30T06:48:21.889Z, 38.33
2022-08-30T06:49:22.038Z, 38.23
2022-08-30T06:50:22.032Z, 38.11
2022-08-30T06:51:22.031Z, 38.14
2022-08-30T06:52:22.055Z, 38.29
2022-08-30T06:53:22.202Z, 38.23
2022-08-30T06:54:22.199Z, 38.38
2022-08-30T06:55:22.205Z, 38.46
2022-08-30T06:56:22.351Z, 38.32
2022-08-30T06:57:22.211Z, 38.45
2022-08-30T06:58:22.380Z, 38.10
2022-08-30T06:59:22.377Z, 38.19
2022-08-30T07:00:22.378Z, 38.15
2022-08-30T07:01:22.457Z, 38.40
2022-08-30T07:02:22.451Z, 38.27
2022-08-30T07:03:22.627Z, 38.27
2022-08-30T07:04:22.409Z, 38.35
2022-08-30T07:05:22.551Z, 38.22
2022-08-30T07:06:22.548Z, 38.32
2022-08-30T07:07:22.557Z, 38.23
2022-08-30T07:08:22.723Z, 38.40
2022-08-30T07:09:23.034Z, 38.25
2022-08-30T07:10:22.727Z, 38.24
2022-08-30T07:11:24.539Z, 38.53
2022-08-30T07:12:22.725Z, 38.32
2022-08-30T07:13:22.730Z, 38.38
2022-08-30T07:14:22.759Z, 38.46
2022-08-30T07:15:22.787Z, 38.23
2022-08-30T07:16:22.845Z, 38.43
2022-08-30T07:17:22.789Z, 38.15
2022-08-30T07:18:22.788Z, 38.41
2022-08-30T07:19:22.805Z, 38.20
2022-08-30T07:20:22.834Z, 38.22
2022-08-30T07:21:22.857Z, 38.28
2022-08-30T07:22:22.899Z, 38.34
2022-08-30T07:23:22.924Z, 38.41
2022-08-30T07:24:22.971Z, 38.43
2022-08-30T07:25:23.004Z, 38.22
2022-08-30T07:26:23.055Z, 38.32
2022-08-30T07:27:23.050Z, 38.52
2022-08-30T07:28:23.165Z, 38.43
2022-08-30T07:29:23.140Z, 38.36
2022-08-30T07:30:23.192Z, 38.40
2022-08-30T07:31:23.261Z, 38.64
2022-08-30T07:32:23.235Z, 38.37
2022-08-30T07:33:23.287Z, 38.55
2022-08-30T07:34:26.967Z, 38.48
2022-08-30T07:35:23.354Z, 38.38
2022-08-30T07:36:23.345Z, 38.50
2022-08-30T07:37:23.384Z, 38.45
2022-08-30T07:38:23.415Z, 38.40
2022-08-30T07:39:23.457Z, 38.69
2022-08-30T07:40:23.703Z, 38.36
2022-08-30T07:41:23.522Z, 38.76
2022-08-30T07:42:23.541Z, 38.49
2022-08-30T07:43:23.608Z, 38.53
2022-08-30T07:44:25.235Z, 38.60
2022-08-30T07:45:23.713Z, 38.53
2022-08-30T07:46:23.794Z, 38.41
2022-08-30T07:47:23.718Z, 38.40
2022-08-30T07:48:23.740Z, 38.45
2022-08-30T07:49:23.772Z, 38.55
2022-08-30T07:50:23.801Z, 38.79
2022-08-30T07:51:23.838Z, 38.64
2022-08-30T07:52:23.960Z, 38.79
2022-08-30T07:53:23.941Z, 38.74
2022-08-30T07:54:23.976Z, 38.60
2022-08-30T07:55:23.990Z, 38.75
2022-08-30T07:56:24.010Z, 38.81
2022-08-30T07:57:24.033Z, 38.62
2022-08-30T07:58:24.147Z, 38.57
2022-08-30T07:59:24.208Z, 38.70
2022-08-30T08:00:24.177Z, 38.77
2022-08-30T08:01:24.326Z, 38.59
2022-08-30T08:02:24.346Z, 38.83
2022-08-30T08:03:24.272Z, 38.69
2022-08-30T08:04:24.381Z, 38.71
2022-08-30T08:05:25.040Z, 38.76
2022-08-30T08:06:24.370Z, 39.06
2022-08-30T08:07:24.406Z, 38.69
2022-08-30T08:08:24.446Z, 38.60
2022-08-30T08:09:24.546Z, 38.72
2022-08-30T08:10:24.563Z, 38.62
2022-08-30T08:11:24.596Z, 38.54
2022-08-30T08:12:24.597Z, 38.74
2022-08-30T08:13:24.665Z, 38.88
2022-08-30T08:14:24.640Z, 38.51
2022-08-30T08:15:24.697Z, 38.65
2022-08-30T08:16:24.787Z, 38.74
2022-08-30T08:17:24.782Z, 38.79
2022-08-30T08:18:24.811Z, 39.02
2022-08-30T08:19:24.780Z, 38.71
2022-08-30T08:20:24.813Z, 38.93
2022-08-30T08:21:24.846Z, 38.95
2022-08-30T08:22:24.963Z, 39.11
2022-08-30T08:23:24.982Z, 38.72
2022-08-30T08:24:24.971Z, 38.77
2022-08-30T08:25:25.005Z, 38.94
2022-08-30T08:26:25.039Z, 38.83
2022-08-30T08:27:25.075Z, 38.70
2022-08-30T08:28:25.104Z, 38.80
2022-08-30T08:29:25.181Z, 38.94
2022-08-30T08:30:25.175Z, 39.09
2022-08-30T08:31:29.909Z, 38.83
2022-08-30T08:32:25.253Z, 38.77
2022-08-30T08:33:25.259Z, 38.88
2022-08-30T08:34:25.283Z, 38.73
2022-08-30T08:35:25.289Z, 38.89
2022-08-30T08:36:25.358Z, 39.04
2022-08-30T08:37:27.868Z, 38.77
2022-08-30T08:38:25.426Z, 38.91
2022-08-30T08:39:25.456Z, 39.30
2022-08-30T08:40:25.536Z, 39.24
2022-08-30T08:41:25.579Z, 39.34
2022-08-30T08:42:25.556Z, 38.80
2022-08-30T08:43:25.631Z, 39.35
2022-08-30T08:44:25.695Z, 39.19
2022-08-30T08:45:25.723Z, 38.81
2022-08-30T08:46:25.750Z, 39.11
2022-08-30T08:47:25.729Z, 38.93
2022-08-30T08:48:28.841Z, 39.10
2022-08-30T08:49:25.851Z, 39.00
2022-08-30T08:50:25.881Z, 39.21
2022-08-30T08:51:25.882Z, 38.96
2022-08-30T08:52:25.887Z, 39.21
2022-08-30T08:53:46.686Z, 39.16
2022-08-30T08:54:26.000Z, 39.06
2022-08-30T08:55:26.041Z, 39.17
2022-08-30T08:56:26.084Z, 39.19
2022-08-30T08:57:26.080Z, 39.30
2022-08-30T08:58:26.062Z, 39.49
2022-08-30T08:59:26.138Z, 39.26
2022-08-30T09:00:26.209Z, 39.14
2022-08-30T09:01:26.272Z, 38.97
2022-08-30T09:02:26.202Z, 39.31
2022-08-30T09:03:26.221Z, 39.60
2022-08-30T09:04:26.264Z, 39.15
2022-08-30T09:05:26.346Z, 39.04
2022-08-30T09:06:26.366Z, 39.13
2022-08-30T09:07:26.394Z, 39.04
2022-08-30T09:08:26.446Z, 39.04
2022-08-30T09:09:26.435Z, 39.08
2022-08-30T09:10:47.097Z, 39.13
2022-08-30T09:11:26.481Z, 39.51
2022-08-30T09:12:26.481Z, 39.39
2022-08-30T09:13:26.587Z, 39.52
2022-08-30T09:15:26.656Z, 39.01
2022-08-30T09:16:26.760Z, 39.53
2022-08-30T09:17:26.692Z, 39.24
2022-08-30T09:18:26.693Z, 39.28
2022-08-30T09:19:26.709Z, 39.14
2022-08-30T09:20:26.739Z, 39.18
2022-08-30T09:21:26.783Z, 39.37
2022-08-30T09:22:26.836Z, 39.18
2022-08-30T09:23:26.909Z, 39.08
2022-08-30T09:24:26.907Z, 39.18
2022-08-30T09:25:26.963Z, 39.40
2022-08-30T09:26:26.937Z, 39.59
2022-08-30T09:27:27.026Z, 39.44
2022-08-30T09:28:27.011Z, 39.27
2022-08-30T09:29:27.092Z, 39.09
2022-08-30T09:30:27.262Z, 39.14
2022-08-30T09:31:27.175Z, 39.49
2022-08-30T09:32:27.135Z, 39.53
2022-08-30T09:33:27.168Z, 39.16
2022-08-30T09:34:27.193Z, 39.29
2022-08-30T09:35:27.237Z, 39.30
2022-08-30T09:36:27.285Z, 39.38
2022-08-30T09:37:27.326Z, 39.33
2022-08-30T09:38:27.345Z, 39.16
2022-08-30T09:39:27.648Z, 39.14
2022-08-30T09:40:27.479Z, 39.54
2022-08-30T09:41:27.505Z, 39.50
2022-08-30T09:42:27.495Z, 39.72
2022-08-30T09:43:27.526Z, 39.59
2022-08-30T09:44:27.620Z, 39.13
2022-08-30T09:45:27.937Z, 39.65
2022-08-30T09:46:27.725Z, 39.53
2022-08-30T09:47:27.691Z, 39.31
2022-08-30T09:48:27.735Z, 39.40
2022-08-30T09:49:27.721Z, 39.07
2022-08-30T09:50:27.773Z, 39.27
2022-08-30T09:51:27.798Z, 39.48
2022-08-30T09:52:27.888Z, 39.51
2022-08-30T09:53:27.886Z, 39.15
2022-08-30T09:54:31.117Z, 39.25
2022-08-30T09:55:27.950Z, 39.35
2022-08-30T09:56:27.966Z, 39.61
2022-08-30T09:57:34.091Z, 39.66
2022-08-30T09:58:30.057Z, 39.30
2022-08-30T09:59:28.083Z, 39.61
2022-08-30T10:00:28.117Z, 39.62
2022-08-30T10:01:28.306Z, 39.39
2022-08-30T10:02:28.278Z, 39.58
2022-08-30T10:03:36.175Z, 39.70
2022-08-30T10:04:31.073Z, 39.72
2022-08-30T10:05:28.289Z, 39.43
2022-08-30T10:06:28.330Z, 39.56
2022-08-30T10:07:29.017Z, 39.33
2022-08-30T10:08:28.394Z, 39.47
2022-08-30T10:09:28.448Z, 39.43
2022-08-30T10:10:28.524Z, 39.55
2022-08-30T10:11:28.549Z, 39.58
2022-08-30T10:12:28.518Z, 39.51
2022-08-30T10:13:28.570Z, 40.00
2022-08-30T10:14:28.761Z, 39.74
2022-08-30T10:15:28.660Z, 39.69
2022-08-30T10:16:28.700Z, 39.68
2022-08-30T10:17:28.712Z, 39.09
2022-08-30T10:18:28.737Z, 39.74
2022-08-30T10:19:28.764Z, 39.17
2022-08-30T10:20:28.866Z, 39.46
2022-08-30T10:21:28.860Z, 39.73
2022-08-30T10:22:28.950Z, 39.51
2022-08-30T10:23:28.949Z, 39.49
2022-08-30T10:24:32.819Z, 39.61
2022-08-30T10:25:28.988Z, 39.53
2022-08-30T10:27:29.109Z, 39.55
2022-08-30T10:28:29.165Z, 39.32
2022-08-30T10:29:29.209Z, 39.46
2022-08-30T10:30:29.228Z, 39.50
2022-08-30T10:31:29.432Z, 39.73
2022-08-30T10:32:29.242Z, 39.56
2022-08-30T10:33:31.705Z, 39.62
2022-08-30T10:34:29.385Z, 39.50
2022-08-30T10:35:34.079Z, 39.36
2022-08-30T10:36:29.429Z, 39.48
2022-08-30T10:37:29.419Z, 39.38
2022-08-30T10:38:29.530Z, 39.49
2022-08-30T10:39:31.019Z, 39.43
2022-08-30T10:40:29.574Z, 39.61
2022-08-30T10:41:29.532Z, 39.44
2022-08-30T10:42:29.580Z, 39.55
2022-08-30T10:43:29.641Z, 39.66
2022-08-30T10:44:29.697Z, 39.79
2022-08-30T10:45:29.777Z, 39.76
2022-08-30T10:46:29.743Z, 39.52
2022-08-30T10:47:29.768Z, 39.33
2022-08-30T10:48:29.837Z, 39.46
2022-08-30T10:49:29.815Z, 39.58
2022-08-30T10:50:29.869Z, 39.44
2022-08-30T10:51:29.971Z, 39.24
2022-08-30T10:52:29.947Z, 39.58
2022-08-30T10:53:29.972Z, 39.38
2022-08-30T10:54:29.996Z, 39.24
2022-08-30T10:55:30.017Z, 39.21
2022-08-30T10:56:30.048Z, 39.40
2022-08-30T10:57:30.155Z, 39.64
2022-08-30T10:58:30.200Z, 39.60
2022-08-30T10:59:30.229Z, 39.76
2022-08-30T11:00:30.269Z, 39.63
2022-08-30T11:01:30.359Z, 39.63
2022-08-30T11:02:30.278Z, 39.29
2022-08-30T11:03:30.359Z, 39.03
2022-08-30T11:04:30.379Z, 39.12
2022-08-30T11:05:30.365Z, 39.53
2022-08-30T11:06:30.407Z, 39.66
2022-08-30T11:07:30.463Z, 39.33
2022-08-30T11:08:30.473Z, 39.69
2022-08-30T11:09:30.559Z, 39.58
2022-08-30T11:10:30.572Z, 39.88
2022-08-30T11:11:31.052Z, 39.60
2022-08-30T11:12:30.642Z, 39.31
2022-08-30T11:13:30.637Z, 39.57
2022-08-30T11:14:30.755Z, 39.59
2022-08-30T11:15:30.714Z, 39.79
2022-08-30T11:16:30.731Z, 39.52
2022-08-30T11:17:30.778Z, 39.83
2022-08-30T11:18:30.774Z, 39.93
2022-08-30T11:19:32.144Z, 39.74
2022-08-30T11:20:30.872Z, 39.69
2022-08-30T11:21:30.918Z, 39.88
2022-08-30T11:22:32.491Z, 39.54
2022-08-30T11:23:33.098Z, 39.32
2022-08-30T11:24:31.025Z, 39.39
2022-08-30T11:25:31.013Z, 39.18
2022-08-30T11:26:31.037Z, 39.08
2022-08-30T11:27:31.067Z, 39.06
2022-08-30T11:28:31.099Z, 39.37
2022-08-30T11:29:31.771Z, 39.45
2022-08-30T11:30:31.226Z, 39.64
2022-08-30T11:31:31.226Z, 39.56
2022-08-30T11:32:31.305Z, 39.87
2022-08-30T11:33:31.300Z, 39.58
2022-08-30T11:34:31.336Z, 39.21
2022-08-30T11:35:31.326Z, 39.48
2022-08-30T11:36:37.793Z, 39.77
2022-08-30T11:37:31.388Z, 39.27
2022-08-30T11:38:31.503Z, 39.70
2022-08-30T11:39:31.477Z, 39.68
2022-08-30T11:40:31.498Z, 39.61
2022-08-30T11:41:31.525Z, 39.63
2022-08-30T11:42:31.609Z, 39.85
2022-08-30T11:43:31.633Z, 39.80
2022-08-30T11:44:31.640Z, 39.62
2022-08-30T11:45:31.808Z, 39.90
2022-08-30T11:46:31.947Z, 39.58
2022-08-30T11:47:31.731Z, 39.69
2022-08-30T11:48:31.813Z, 39.21
2022-08-30T11:49:31.793Z, 39.71
2022-08-30T11:50:31.790Z, 39.84
2022-08-30T11:51:31.858Z, 39.82
2022-08-30T11:52:31.905Z, 39.45
2022-08-30T11:53:31.920Z, 39.23
2022-08-30T11:54:31.937Z, 39.78
2022-08-30T11:55:31.979Z, 39.67
2022-08-30T11:56:32.000Z, 39.64
2022-08-30T11:57:32.047Z, 39.75
2022-08-30T11:58:32.061Z, 39.57
2022-08-30T11:59:32.094Z, 39.13
2022-08-30T12:00:34.851Z, 39.49
2022-08-30T12:01:49.873Z, 39.48
2022-08-30T12:02:32.272Z, 39.74
2022-08-30T12:03:32.358Z, 38.74
2022-08-30T12:04:32.349Z, 39.36
2022-08-30T12:05:32.336Z, 39.43
2022-08-30T12:06:32.402Z, 39.45
2022-08-30T12:07:32.392Z, 39.69
2022-08-30T12:08:32.501Z, 39.50
2022-08-30T12:09:32.458Z, 39.84
2022-08-30T12:10:32.572Z, 39.64
2022-08-30T12:11:32.598Z, 39.45
2022-08-30T12:12:32.602Z, 39.53
2022-08-30T12:13:32.565Z, 39.64
2022-08-30T12:14:32.621Z, 39.28
2022-08-30T12:15:32.623Z, 39.66
2022-08-30T12:16:32.729Z, 39.54
2022-08-30T12:17:32.705Z, 39.58
2022-08-30T12:18:32.746Z, 39.78
2022-08-30T12:19:32.775Z, 39.76
2022-08-30T12:20:32.877Z, 39.67
2022-08-30T12:21:35.336Z, 39.85
2022-08-30T12:22:32.872Z, 39.83
2022-08-30T12:23:32.900Z, 39.39
2022-08-30T12:24:33.008Z, 39.62
2022-08-30T12:25:32.987Z, 40.01
2022-08-30T12:26:33.034Z, 39.85
2022-08-30T12:27:33.184Z, 39.94
2022-08-30T12:28:33.106Z, 39.64
2022-08-30T12:29:33.131Z, 39.31
2022-08-30T12:30:33.153Z, 39.54